Aviation Digital Data Service (ADDS)

Output produced by METARs form (1427 UTC 16 April 2014)
found at http://aviationweather.gov/adds/metars/
 
KPIT 161220Z 1618/1724 09004KT P6SM SKC